createdAt,value
2018-11-07T00:02:05.133Z,84.50
2018-11-07T00:04:33.302Z,85.00
2018-11-07T00:07:01.389Z,86.20
2018-11-07T00:09:29.537Z,86.90
2018-11-07T00:11:57.754Z,86.40
2018-11-07T00:14:25.926Z,87.10
2018-11-07T00:16:54.102Z,87.20
2018-11-07T00:19:22.281Z,88.40
2018-11-07T00:21:55.755Z,88.70
2018-11-07T00:24:23.912Z,88.50
2018-11-07T00:26:52.114Z,89.20
2018-11-07T00:29:20.432Z,89.30
2018-11-07T00:31:54.131Z,86.70
2018-11-07T00:34:22.428Z,87.40
2018-11-07T00:36:50.580Z,88.20
2018-11-07T00:39:18.865Z,88.80
2018-11-07T00:41:47.023Z,88.40
2018-11-07T00:44:15.160Z,87.50
2018-11-07T00:46:43.957Z,86.10
2018-11-07T00:49:12.217Z,86.50
2018-11-07T00:51:40.352Z,85.00
2018-11-07T00:54:08.458Z,85.00
2018-11-07T00:56:36.639Z,85.60
2018-11-07T00:59:04.855Z,86.10
2018-11-07T01:01:33.215Z,85.80
2018-11-07T01:04:01.516Z,87.10
2018-11-07T01:06:29.737Z,86.80
2018-11-07T01:08:57.877Z,87.40
2018-11-07T01:11:26.051Z,85.40
2018-11-07T01:13:54.173Z,85.80
2018-11-07T01:16:23.206Z,85.40
2018-11-07T01:18:51.421Z,85.60
2018-11-07T01:21:19.577Z,86.00
2018-11-07T01:23:47.763Z,85.70
2018-11-07T01:26:16.004Z,86.00
2018-11-07T01:28:44.257Z,84.80
2018-11-07T01:31:14.719Z,85.40
2018-11-07T01:33:43.123Z,85.70
2018-11-07T01:36:11.250Z,84.40
2018-11-07T01:38:39.498Z,85.10
2018-11-07T01:41:07.767Z,86.40
2018-11-07T01:43:35.924Z,87.80
2018-11-07T01:46:04.130Z,88.60
2018-11-07T01:48:32.322Z,87.80
2018-11-07T01:51:00.482Z,87.40
2018-11-07T01:53:28.538Z,88.40
2018-11-07T01:55:56.798Z,88.10
2018-11-07T01:58:24.997Z,88.90
2018-11-07T02:00:53.159Z,87.80
2018-11-07T02:03:21.327Z,87.50
2018-11-07T02:05:49.504Z,87.00
2018-11-07T02:08:17.631Z,87.40
2018-11-07T02:10:45.803Z,86.10
2018-11-07T02:13:13.937Z,86.90
2018-11-07T02:15:42.191Z,86.90
2018-11-07T02:18:10.743Z,86.40
2018-11-07T02:20:38.892Z,85.90
2018-11-07T02:23:12.179Z,84.30
2018-11-07T02:25:40.313Z,84.30
2018-11-07T02:28:08.502Z,84.30
2018-11-07T02:30:36.612Z,84.40
2018-11-07T02:33:04.906Z,84.40
2018-11-07T02:35:33.133Z,84.50
2018-11-07T02:38:01.954Z,85.10
2018-11-07T02:40:30.199Z,85.30
2018-11-07T02:42:58.620Z,84.60
2018-11-07T02:45:26.933Z,85.60
2018-11-07T02:47:55.112Z,85.60
2018-11-07T02:50:23.280Z,85.70
2018-11-07T02:53:21.147Z,86.00
2018-11-07T02:55:49.223Z,86.20
2018-11-07T02:58:17.355Z,85.50
2018-11-07T03:00:45.417Z,85.30
2018-11-07T03:03:18.806Z,86.50
2018-11-07T03:05:47.001Z,86.30
2018-11-07T03:08:15.259Z,86.90
2018-11-07T03:10:43.476Z,87.40
2018-11-07T03:13:11.724Z,87.00
2018-11-07T03:15:39.863Z,86.70
2018-11-07T03:18:08.013Z,87.50
2018-11-07T03:20:36.161Z,87.30
2018-11-07T03:23:04.463Z,87.30
2018-11-07T03:25:32.908Z,87.20
2018-11-07T03:28:01.074Z,86.90
2018-11-07T03:30:29.211Z,85.50
2018-11-07T03:32:58.129Z,86.50
2018-11-07T03:35:27.247Z,86.80
2018-11-07T03:37:56.327Z,87.80
2018-11-07T03:40:25.170Z,87.30
2018-11-07T03:42:53.523Z,87.30
2018-11-07T03:45:26.265Z,87.00
2018-11-07T03:47:55.537Z,86.60
2018-11-07T03:50:23.786Z,85.70
2018-11-07T03:52:51.994Z,86.00
2018-11-07T03:55:20.220Z,86.00
2018-11-07T03:57:48.371Z,86.90
2018-11-07T04:00:16.535Z,87.50
2018-11-07T04:02:44.862Z,86.60
2018-11-07T04:05:13.094Z,86.90
2018-11-07T04:07:42.088Z,87.60
2018-11-07T04:10:13.437Z,87.60
2018-11-07T04:12:41.701Z,87.10
2018-11-07T04:15:09.926Z,87.00
2018-11-07T04:17:38.212Z,87.60
2018-11-07T04:20:07.550Z,87.40
2018-11-07T04:22:40.804Z,87.90
2018-11-07T04:25:09.358Z,88.30
2018-11-07T04:27:37.637Z,88.70
2018-11-07T04:30:08.724Z,88.80
2018-11-07T04:32:37.034Z,87.60
2018-11-07T04:35:11.878Z,87.40
2018-11-07T04:37:40.660Z,86.40
2018-11-07T04:40:10.850Z,86.90
2018-11-07T04:42:39.181Z,87.50
2018-11-07T04:45:07.570Z,88.20
2018-11-07T04:47:37.225Z,85.70
2018-11-07T04:50:08.767Z,86.40
2018-11-07T04:52:36.933Z,86.90
2018-11-07T04:55:05.959Z,87.60
2018-11-07T04:57:36.644Z,88.00
2018-11-07T05:00:08.223Z,88.70
2018-11-07T05:02:36.320Z,87.50
2018-11-07T05:05:04.916Z,87.70
2018-11-07T05:07:33.601Z,87.50
2018-11-07T05:10:01.776Z,87.60
2018-11-07T05:12:29.936Z,87.60
2018-11-07T05:14:58.060Z,86.80
2018-11-07T05:17:26.191Z,88.10
2018-11-07T05:19:54.362Z,88.10
2018-11-07T05:22:22.581Z,89.00
2018-11-07T05:24:50.708Z,86.80
2018-11-07T05:27:18.867Z,87.20
2018-11-07T05:29:47.019Z,87.50
2018-11-07T05:32:15.133Z,87.40
2018-11-07T05:34:43.298Z,87.80
2018-11-07T05:37:11.456Z,88.00
2018-11-07T05:39:39.649Z,87.80
2018-11-07T05:42:07.831Z,87.20
2018-11-07T05:44:35.984Z,87.40
2018-11-07T05:47:04.329Z,87.30
2018-11-07T05:49:32.468Z,87.50
2018-11-07T05:52:00.720Z,88.50
2018-11-07T05:54:28.906Z,89.80
2018-11-07T05:56:57.143Z,89.80
2018-11-07T05:59:25.340Z,89.40
2018-11-07T06:02:12.519Z,89.80
2018-11-07T06:04:40.708Z,89.10
2018-11-07T06:07:08.809Z,89.70
2018-11-07T06:09:38.115Z,89.60
2018-11-07T06:12:06.285Z,89.60
2018-11-07T06:14:34.461Z,89.60
2018-11-07T06:17:02.690Z,89.50
2018-11-07T06:19:30.871Z,90.20
2018-11-07T06:21:59.031Z,89.60
2018-11-07T06:24:27.266Z,89.50
2018-11-07T06:26:55.444Z,89.40
2018-11-07T06:29:24.697Z,89.50
2018-11-07T06:31:54.234Z,90.20
2018-11-07T06:34:22.408Z,90.20
2018-11-07T06:36:50.569Z,89.60
2018-11-07T06:39:18.756Z,89.60
2018-11-07T06:41:46.916Z,89.70
2018-11-07T06:44:15.819Z,89.60
2018-11-07T06:46:44.048Z,88.90
2018-11-07T06:49:12.690Z,89.60
2018-11-07T06:51:40.873Z,89.50
2018-11-07T06:54:09.028Z,89.90
2018-11-07T06:56:37.520Z,89.00
2018-11-07T06:59:06.116Z,89.60
2018-11-07T07:01:34.260Z,90.00
2018-11-07T07:04:02.464Z,89.70
2018-11-07T07:06:30.600Z,89.60
2018-11-07T07:08:58.729Z,89.40
2018-11-07T07:11:26.950Z,89.50
2018-11-07T07:13:55.907Z,89.00
2018-11-07T07:16:24.129Z,89.50
2018-11-07T07:18:52.267Z,89.50
2018-11-07T07:21:20.489Z,89.50
2018-11-07T07:23:48.592Z,89.50
2018-11-07T07:26:16.780Z,90.10
2018-11-07T07:28:44.907Z,89.10
2018-11-07T07:31:13.237Z,89.60
2018-11-07T07:33:41.927Z,89.60
2018-11-07T07:36:10.010Z,89.60
2018-11-07T07:38:38.100Z,89.00
2018-11-07T07:41:06.268Z,89.00
2018-11-07T07:43:39.421Z,89.50
2018-11-07T07:46:07.532Z,89.60
2018-11-07T07:48:35.726Z,89.40
2018-11-07T07:51:04.434Z,90.10
2018-11-07T07:53:32.581Z,90.00
2018-11-07T07:56:00.789Z,89.30
2018-11-07T07:58:28.909Z,90.00
2018-11-07T08:00:57.108Z,88.90
2018-11-07T08:03:25.285Z,88.60
2018-11-07T08:05:53.469Z,88.30
2018-11-07T08:08:21.633Z,89.30
2018-11-07T08:10:49.736Z,89.80
2018-11-07T08:13:18.278Z,89.90
2018-11-07T08:15:46.451Z,90.00
2018-11-07T08:18:14.581Z,89.60
2018-11-07T08:20:42.694Z,89.00
2018-11-07T08:23:10.993Z,87.60
2018-11-07T08:25:39.217Z,87.70
2018-11-07T08:28:07.975Z,86.80
2018-11-07T08:30:37.577Z,87.20
2018-11-07T08:33:10.803Z,88.10
2018-11-07T08:35:39.000Z,87.20
2018-11-07T08:38:07.243Z,86.40
2018-11-07T08:40:35.404Z,87.30
2018-11-07T08:43:03.928Z,87.40
2018-11-07T08:45:32.048Z,86.40
2018-11-07T08:48:00.189Z,85.80
2018-11-07T08:50:28.351Z,86.20
2018-11-07T08:53:10.374Z,85.50
2018-11-07T08:55:38.526Z,85.50
2018-11-07T08:58:06.674Z,86.10
2018-11-07T09:00:34.794Z,85.50
2018-11-07T09:03:02.947Z,86.20
2018-11-07T09:05:31.096Z,85.10
2018-11-07T09:07:59.292Z,85.00
2018-11-07T09:10:27.445Z,85.70
2018-11-07T09:12:55.685Z,83.20
2018-11-07T09:15:23.903Z,83.30
2018-11-07T09:17:52.102Z,82.70
2018-11-07T09:20:21.613Z,83.40
2018-11-07T09:22:50.111Z,83.50
2018-11-07T09:25:19.414Z,82.50
2018-11-07T09:27:48.582Z,82.80
2018-11-07T09:30:20.003Z,82.20
2018-11-07T09:32:48.232Z,81.20
2018-11-07T09:35:16.474Z,82.30
2018-11-07T09:37:44.694Z,83.50
2018-11-07T09:40:17.488Z,81.10
2018-11-07T09:42:46.337Z,81.20
2018-11-07T09:45:16.159Z,81.30
2018-11-07T09:47:45.065Z,79.80
2018-11-07T09:50:14.117Z,81.30
2018-11-07T09:52:42.531Z,80.00
2018-11-07T09:55:12.730Z,79.30
2018-11-07T09:57:41.146Z,79.20
2018-11-07T10:00:12.685Z,79.90
2018-11-07T10:02:41.068Z,79.20
2018-11-07T10:05:11.775Z,80.00
2018-11-07T10:07:40.479Z,77.80
2018-11-07T10:10:11.946Z,77.70
2018-11-07T10:12:40.535Z,78.20
2018-11-07T10:15:11.209Z,78.20
2018-11-07T10:17:39.414Z,78.20
2018-11-07T10:20:11.617Z,77.50
2018-11-07T10:22:46.709Z,76.60
2018-11-07T10:25:15.053Z,76.60
2018-11-07T10:27:43.505Z,77.10
2018-11-07T10:30:13.900Z,76.70
2018-11-07T10:33:00.800Z,76.60
2018-11-07T10:35:28.913Z,76.60
2018-11-07T10:37:57.107Z,76.60
2018-11-07T10:40:25.193Z,76.70
2018-11-07T10:42:53.349Z,75.20
2018-11-07T10:45:21.516Z,77.20
2018-11-07T10:47:50.141Z,76.60
2018-11-07T10:50:19.356Z,76.60
2018-11-07T10:52:48.354Z,76.10
2018-11-07T10:55:16.937Z,76.00
2018-11-07T10:57:45.462Z,75.70
2018-11-07T11:00:20.528Z,76.60
2018-11-07T11:03:08.723Z,74.90
2018-11-07T11:05:37.895Z,75.90
2018-11-07T11:08:06.293Z,76.40
2018-11-07T11:10:34.387Z,75.90
2018-11-07T11:13:02.586Z,75.20
2018-11-07T11:15:30.709Z,74.50
2018-11-07T11:17:58.901Z,73.90
2018-11-07T11:20:26.993Z,73.80
2018-11-07T11:22:55.169Z,74.70
2018-11-07T11:25:23.332Z,75.00
2018-11-07T11:27:51.538Z,74.60
2018-11-07T11:30:19.770Z,74.60
2018-11-07T11:32:48.003Z,76.70
2018-11-07T11:35:16.267Z,75.70
2018-11-07T11:37:44.376Z,76.00
2018-11-07T11:40:13.673Z,75.50
2018-11-07T11:42:42.755Z,76.20
2018-11-07T11:45:13.213Z,75.30
2018-11-07T11:47:43.030Z,74.70
2018-11-07T11:50:13.738Z,74.30
2018-11-07T11:52:43.059Z,73.30
2018-11-07T11:55:11.337Z,73.60
2018-11-07T11:57:40.102Z,73.00
2018-11-07T12:00:12.627Z,71.40
2018-11-07T12:02:40.651Z,71.30
2018-11-07T12:05:10.405Z,71.50
2018-11-07T12:07:38.982Z,71.60
2018-11-07T12:10:14.845Z,71.50
2018-11-07T12:12:50.261Z,71.70
2018-11-07T12:15:19.420Z,71.20
2018-11-07T12:17:47.662Z,71.20
2018-11-07T12:20:15.909Z,71.60
2018-11-07T12:22:49.520Z,71.00
2018-11-07T12:25:18.395Z,70.20
2018-11-07T12:27:46.626Z,69.20
2018-11-07T12:30:16.907Z,69.30
2018-11-07T12:32:46.509Z,68.20
2018-11-07T12:35:15.315Z,67.90
2018-11-07T12:37:43.471Z,67.30
2018-11-07T12:40:12.283Z,66.80
2018-11-07T12:42:45.757Z,65.70
2018-11-07T12:45:14.879Z,66.40
2018-11-07T12:47:43.024Z,64.50
2018-11-07T12:50:14.123Z,64.80
2018-11-07T12:52:42.843Z,62.60
2018-11-07T12:55:11.755Z,61.70
2018-11-07T12:57:39.932Z,59.80
2018-11-07T13:00:12.814Z,58.40
2018-11-07T13:02:41.101Z,57.00
2018-11-07T13:05:10.806Z,55.50
2018-11-07T13:07:39.305Z,54.10
2018-11-07T13:10:11.121Z,53.20
2018-11-07T13:12:39.825Z,52.70
2018-11-07T13:15:09.365Z,52.80
2018-11-07T13:17:37.552Z,52.80
2018-11-07T13:20:14.326Z,51.40
2018-11-07T13:22:43.707Z,51.60
2018-11-07T13:25:12.433Z,51.40
2018-11-07T13:27:40.686Z,51.10
2018-11-07T13:30:12.133Z,51.90
2018-11-07T13:32:45.474Z,51.60
2018-11-07T13:35:14.507Z,50.40
2018-11-07T13:37:43.823Z,50.10
2018-11-07T13:40:17.889Z,49.70
2018-11-07T13:42:46.942Z,48.90
2018-11-07T13:45:16.373Z,49.10
2018-11-07T13:47:45.600Z,49.60
2018-11-07T13:50:14.362Z,49.60
2018-11-07T13:52:42.546Z,49.90
2018-11-07T13:55:11.748Z,49.30
2018-11-07T13:57:40.390Z,50.80
2018-11-07T14:00:12.536Z,50.80
2018-11-07T14:02:40.693Z,50.20
2018-11-07T14:05:09.964Z,50.80
2018-11-07T14:07:38.287Z,50.60
2018-11-07T14:10:09.457Z,50.10
2018-11-07T14:12:37.745Z,50.80
2018-11-07T14:15:09.025Z,50.70
2018-11-07T14:17:37.355Z,52.60
2018-11-07T14:20:06.400Z,53.30
2018-11-07T14:22:34.710Z,53.40
2018-11-07T14:25:03.100Z,53.30
2018-11-07T14:27:31.408Z,53.10
2018-11-07T14:29:59.572Z,54.80
2018-11-07T14:32:29.169Z,54.70
2018-11-07T14:34:57.346Z,55.20
2018-11-07T14:37:25.604Z,55.60
2018-11-07T14:39:53.788Z,56.50
2018-11-07T14:42:22.096Z,57.20
2018-11-07T14:44:50.283Z,57.40
2018-11-07T14:47:18.677Z,57.60
2018-11-07T14:49:47.109Z,57.80
2018-11-07T14:52:15.318Z,57.80
2018-11-07T14:54:43.627Z,58.80
2018-11-07T14:57:11.882Z,59.20
2018-11-07T14:59:40.119Z,59.90
2018-11-07T15:02:08.534Z,61.00
2018-11-07T15:04:36.750Z,61.60
2018-11-07T15:07:05.299Z,62.20
2018-11-07T15:09:33.383Z,63.90
2018-11-07T15:12:06.979Z,64.60
2018-11-07T15:14:35.156Z,65.60
2018-11-07T15:17:03.423Z,67.30
2018-11-07T15:19:31.623Z,67.90
2018-11-07T15:21:59.855Z,68.50
2018-11-07T15:24:28.038Z,69.40
2018-11-07T15:26:56.163Z,69.80
2018-11-07T15:29:24.328Z,70.50
2018-11-07T15:31:52.855Z,71.40
2018-11-07T15:34:21.036Z,71.20
2018-11-07T15:36:49.582Z,71.90
2018-11-07T15:39:17.866Z,73.00
2018-11-07T15:41:55.181Z,73.40
2018-11-07T15:44:23.458Z,75.90
2018-11-07T15:46:51.655Z,75.90
2018-11-07T15:49:20.104Z,76.80
2018-11-07T15:51:53.715Z,77.80
2018-11-07T15:54:23.229Z,79.10
2018-11-07T15:56:51.409Z,78.60
2018-11-07T15:59:19.619Z,78.80
2018-11-07T16:01:47.890Z,80.10
2018-11-07T16:04:16.212Z,79.90
2018-11-07T16:06:44.469Z,80.80
2018-11-07T16:09:13.597Z,80.80
2018-11-07T16:11:43.372Z,81.60
2018-11-07T16:14:11.595Z,81.50
2018-11-07T16:16:39.799Z,80.00
2018-11-07T16:19:08.707Z,79.90
2018-11-07T16:21:36.960Z,79.30
2018-11-07T16:24:06.134Z,79.40
2018-11-07T16:26:34.207Z,79.30
2018-11-07T16:29:02.576Z,80.10
2018-11-07T16:31:31.484Z,80.00
2018-11-07T16:34:02.606Z,79.70
2018-11-07T16:36:32.931Z,80.40
2018-11-07T16:39:01.960Z,79.80
2018-11-07T16:41:30.380Z,80.60
2018-11-07T16:43:58.492Z,81.10
2018-11-07T16:46:26.787Z,81.50
2018-11-07T16:48:55.514Z,79.90
2018-11-07T16:51:23.696Z,79.90
2018-11-07T16:53:51.968Z,79.70
2018-11-07T16:56:20.306Z,80.00
2018-11-07T16:58:48.574Z,80.20
2018-11-07T17:01:16.837Z,79.90
2018-11-07T17:03:45.046Z,79.70
2018-11-07T17:06:13.315Z,79.80
2018-11-07T17:08:41.559Z,79.70
2018-11-07T17:11:10.104Z,80.30
2018-11-07T17:13:38.273Z,81.20
2018-11-07T17:16:06.535Z,81.50
2018-11-07T17:18:34.820Z,81.70
2018-11-07T17:21:03.005Z,81.70
2018-11-07T17:23:31.185Z,81.70
2018-11-07T17:25:59.393Z,82.40
2018-11-07T17:28:27.537Z,83.50
2018-11-07T17:30:56.338Z,83.20
2018-11-07T17:33:24.453Z,83.70
2018-11-07T17:35:52.666Z,82.80
2018-11-07T17:38:20.811Z,82.90
2018-11-07T17:40:48.983Z,83.70
2018-11-07T17:43:18.036Z,84.50
2018-11-07T17:45:46.279Z,84.90
2018-11-07T17:48:15.443Z,85.30
2018-11-07T17:50:43.599Z,85.10
2018-11-07T17:53:11.780Z,86.50
2018-11-07T17:55:39.948Z,86.70
2018-11-07T17:58:08.062Z,87.10
2018-11-07T18:00:36.279Z,87.60
2018-11-07T18:03:04.557Z,88.00
2018-11-07T18:05:32.739Z,87.80
2018-11-07T18:08:01.196Z,88.50
2018-11-07T18:10:29.389Z,89.10
2018-11-07T18:12:57.502Z,88.70
2018-11-07T18:15:25.705Z,88.40
2018-11-07T18:17:54.236Z,88.00
2018-11-07T18:20:22.386Z,86.90
2018-11-07T18:22:50.713Z,86.90
2018-11-07T18:25:18.885Z,86.90
2018-11-07T18:27:47.058Z,87.20
2018-11-07T18:30:16.356Z,87.30
2018-11-07T18:32:45.427Z,87.20
2018-11-07T18:35:15.710Z,86.90
2018-11-07T18:37:44.734Z,87.80
2018-11-07T18:40:14.142Z,87.10
2018-11-07T18:42:43.241Z,86.90
2018-11-07T18:45:12.312Z,86.50
2018-11-07T18:47:42.070Z,87.10
2018-11-07T18:50:12.075Z,87.50
2018-11-07T18:52:40.687Z,88.80
2018-11-07T18:55:10.910Z,88.70
2018-11-07T18:57:39.269Z,89.10
2018-11-07T19:00:10.802Z,88.00
2018-11-07T19:02:39.541Z,88.00
2018-11-07T19:05:08.158Z,87.90
2018-11-07T19:07:36.859Z,86.90
2018-11-07T19:10:08.632Z,86.90
2018-11-07T19:12:37.717Z,88.00
2018-11-07T19:15:08.569Z,88.20
2018-11-07T19:17:36.793Z,87.80
2018-11-07T19:20:05.673Z,87.90
2018-11-07T19:22:33.909Z,87.50
2018-11-07T19:25:02.148Z,87.60
2018-11-07T19:27:30.418Z,86.80
2018-11-07T19:29:58.761Z,87.60
2018-11-07T19:32:32.300Z,87.60
2018-11-07T19:35:01.537Z,88.20
2018-11-07T19:37:31.412Z,88.50
2018-11-07T19:39:59.549Z,89.30
2018-11-07T19:42:27.814Z,89.60
2018-11-07T19:44:56.102Z,90.00
2018-11-07T19:47:24.276Z,90.70
2018-11-07T19:49:52.582Z,89.50
2018-11-07T19:52:22.036Z,90.20
2018-11-07T19:54:50.192Z,90.20
2018-11-07T19:57:18.410Z,89.80
2018-11-07T19:59:46.633Z,88.60
2018-11-07T20:02:15.238Z,88.80
2018-11-07T20:04:43.434Z,88.60
2018-11-07T20:07:11.690Z,89.30
2018-11-07T20:09:39.899Z,89.10
2018-11-07T20:12:08.165Z,87.90
2018-11-07T20:14:36.371Z,87.60
2018-11-07T20:17:04.896Z,88.70
2018-11-07T20:19:33.099Z,88.70
2018-11-07T20:22:06.398Z,89.10
2018-11-07T20:24:35.138Z,89.10
2018-11-07T20:27:03.580Z,88.90
2018-11-07T20:29:31.840Z,88.60
2018-11-07T20:31:59.971Z,87.40
2018-11-07T20:34:28.177Z,87.50
2018-11-07T20:36:56.439Z,86.50
2018-11-07T20:39:26.162Z,86.50
2018-11-07T20:41:55.134Z,86.50
2018-11-07T20:44:23.201Z,86.40
2018-11-07T20:46:51.399Z,86.40
2018-11-07T20:49:25.093Z,86.70
2018-11-07T20:51:53.495Z,87.00
2018-11-07T20:54:28.858Z,87.40
2018-11-07T20:56:58.721Z,87.30
2018-11-07T20:59:32.310Z,86.60
2018-11-07T21:02:06.875Z,87.40
2018-11-07T21:04:36.751Z,86.00
2018-11-07T21:07:11.467Z,85.60
2018-11-07T21:09:45.956Z,86.10
2018-11-07T21:12:25.892Z,85.20
2018-11-07T21:14:58.492Z,87.80
2018-11-07T21:17:30.986Z,87.00
2018-11-07T21:20:00.562Z,85.70
2018-11-07T21:22:30.545Z,87.00
2018-11-07T21:25:01.822Z,86.80
2018-11-07T21:27:45.693Z,85.90
2018-11-07T21:30:15.851Z,86.50
2018-11-07T21:32:46.723Z,87.80
2018-11-07T21:35:22.826Z,88.20
2018-11-07T21:37:51.376Z,87.60
2018-11-07T21:40:19.721Z,89.00
2018-11-07T21:42:48.343Z,88.50
2018-11-07T21:45:16.695Z,87.90
2018-11-07T21:47:45.008Z,87.70
2018-11-07T21:50:15.724Z,87.40
2018-11-07T21:52:44.215Z,88.20
2018-11-07T21:55:12.828Z,87.60
2018-11-07T21:57:41.183Z,88.10
2018-11-07T22:00:13.722Z,87.30
2018-11-07T22:02:42.850Z,88.20
2018-11-07T22:05:12.025Z,87.30
2018-11-07T22:07:40.494Z,86.60
2018-11-07T22:10:09.914Z,86.40
2018-11-07T22:12:38.443Z,86.80
2018-11-07T22:15:07.532Z,86.00
2018-11-07T22:17:35.950Z,86.30
2018-11-07T22:20:08.331Z,86.70
2018-11-07T22:22:41.961Z,87.50
2018-11-07T22:25:10.099Z,88.10
2018-11-07T22:27:39.681Z,88.60
2018-11-07T22:30:11.241Z,88.60
2018-11-07T22:32:39.532Z,89.20
2018-11-07T22:35:09.643Z,89.90
2018-11-07T22:37:38.319Z,90.00
2018-11-07T22:40:08.988Z,90.30
2018-11-07T22:42:37.179Z,90.20
2018-11-07T22:45:05.829Z,90.20
2018-11-07T22:47:34.092Z,90.00
2018-11-07T22:50:03.210Z,89.40
2018-11-07T22:52:31.440Z,88.70
2018-11-07T22:55:00.178Z,88.80
2018-11-07T22:57:28.324Z,88.00
2018-11-07T22:59:56.443Z,88.80
2018-11-07T23:02:24.573Z,89.10
2018-11-07T23:04:52.811Z,88.80
2018-11-07T23:07:20.969Z,88.40
2018-11-07T23:09:49.868Z,89.30
2018-11-07T23:12:18.023Z,87.50
2018-11-07T23:14:46.489Z,87.80
2018-11-07T23:17:14.768Z,87.10
2018-11-07T23:19:42.913Z,88.30
2018-11-07T23:22:11.096Z,88.00
2018-11-07T23:24:39.248Z,87.30
2018-11-07T23:27:08.158Z,87.90
2018-11-07T23:29:36.331Z,88.30
2018-11-07T23:32:04.564Z,87.60
2018-11-07T23:34:32.717Z,86.60
2018-11-07T23:37:00.888Z,86.80
2018-11-07T23:39:29.131Z,87.20
2018-11-07T23:42:06.858Z,87.10
2018-11-07T23:44:35.032Z,86.30
2018-11-07T23:47:03.210Z,85.70
2018-11-07T23:49:31.325Z,85.70
2018-11-07T23:51:59.522Z,86.40
2018-11-07T23:54:27.605Z,86.10
2018-11-07T23:56:55.836Z,86.30
2018-11-07T23:59:24.022Z,86.50
